sensor_id;sensor_type;location;lat;lon;timestamp;P1;durP1;ratioP1;P2;durP2;ratioP2
2488;SDS011;1255;48.716;9.124;2022-08-14T00:01:13;3.10;;;2.80;;
2488;SDS011;1255;48.716;9.124;2022-08-14T00:03:40;2.60;;;2.20;;
2488;SDS011;1255;48.716;9.124;2022-08-14T00:06:07;3.03;;;2.40;;
2488;SDS011;1255;48.716;9.124;2022-08-14T00:08:35;2.57;;;2.37;;
2488;SDS011;1255;48.716;9.124;2022-08-14T00:11:02;3.07;;;2.70;;
2488;SDS011;1255;48.716;9.124;2022-08-14T00:13:29;2.70;;;2.20;;
2488;SDS011;1255;48.716;9.124;2022-08-14T00:15:58;2.80;;;2.50;;
2488;SDS011;1255;48.716;9.124;2022-08-14T00:18:25;3.20;;;2.67;;
2488;SDS011;1255;48.716;9.124;2022-08-14T00:20:53;2.60;;;2.40;;
2488;SDS011;1255;48.716;9.124;2022-08-14T00:23:21;2.47;;;2.27;;
2488;SDS011;1255;48.716;9.124;2022-08-14T00:25:49;2.80;;;2.23;;
2488;SDS011;1255;48.716;9.124;2022-08-14T00:28:17;2.50;;;2.30;;
2488;SDS011;1255;48.716;9.124;2022-08-14T00:30:50;2.77;;;2.57;;
2488;SDS011;1255;48.716;9.124;2022-08-14T00:33:17;3.50;;;2.77;;
2488;SDS011;1255;48.716;9.124;2022-08-14T00:35:44;2.43;;;2.23;;
2488;SDS011;1255;48.716;9.124;2022-08-14T00:38:11;2.40;;;2.07;;
2488;SDS011;1255;48.716;9.124;2022-08-14T00:40:38;2.70;;;2.50;;
2488;SDS011;1255;48.716;9.124;2022-08-14T00:43:06;2.93;;;2.60;;
2488;SDS011;1255;48.716;9.124;2022-08-14T00:45:33;3.13;;;2.90;;
2488;SDS011;1255;48.716;9.124;2022-08-14T00:48:00;3.23;;;2.70;;
2488;SDS011;1255;48.716;9.124;2022-08-14T00:50:27;3.20;;;2.70;;
2488;SDS011;1255;48.716;9.124;2022-08-14T00:52:55;2.40;;;2.20;;
2488;SDS011;1255;48.716;9.124;2022-08-14T00:55:24;2.60;;;2.17;;
2488;SDS011;1255;48.716;9.124;2022-08-14T00:57:52;2.47;;;2.27;;
2488;SDS011;1255;48.716;9.124;2022-08-14T01:00:35;2.63;;;2.43;;
2488;SDS011;1255;48.716;9.124;2022-08-14T01:03:02;2.17;;;2.03;;
2488;SDS011;1255;48.716;9.124;2022-08-14T01:05:29;2.77;;;2.53;;
2488;SDS011;1255;48.716;9.124;2022-08-14T01:07:56;2.50;;;2.30;;
2488;SDS011;1255;48.716;9.124;2022-08-14T01:10:24;2.60;;;2.40;;
2488;SDS011;1255;48.716;9.124;2022-08-14T01:13:13;2.57;;;2.30;;
2488;SDS011;1255;48.716;9.124;2022-08-14T01:15:43;4.90;;;2.47;;
2488;SDS011;1255;48.716;9.124;2022-08-14T01:18:10;2.73;;;2.53;;
2488;SDS011;1255;48.716;9.124;2022-08-14T01:20:55;2.40;;;2.20;;
2488;SDS011;1255;48.716;9.124;2022-08-14T01:23:35;3.30;;;2.90;;
2488;SDS011;1255;48.716;9.124;2022-08-14T01:26:04;2.80;;;2.60;;
2488;SDS011;1255;48.716;9.124;2022-08-14T01:28:32;2.80;;;2.60;;
2488;SDS011;1255;48.716;9.124;2022-08-14T01:31:02;2.57;;;2.37;;
2488;SDS011;1255;48.716;9.124;2022-08-14T01:33:34;2.27;;;2.07;;
2488;SDS011;1255;48.716;9.124;2022-08-14T01:36:05;2.60;;;2.40;;
2488;SDS011;1255;48.716;9.124;2022-08-14T01:38:34;2.60;;;2.40;;
2488;SDS011;1255;48.716;9.124;2022-08-14T01:41:04;2.70;;;2.40;;
2488;SDS011;1255;48.716;9.124;2022-08-14T01:43:31;3.17;;;2.97;;
2488;SDS011;1255;48.716;9.124;2022-08-14T01:46:02;2.70;;;2.50;;
2488;SDS011;1255;48.716;9.124;2022-08-14T01:48:30;3.10;;;2.80;;
2488;SDS011;1255;48.716;9.124;2022-08-14T01:50:57;2.60;;;2.40;;
2488;SDS011;1255;48.716;9.124;2022-08-14T01:53:27;3.07;;;2.77;;
2488;SDS011;1255;48.716;9.124;2022-08-14T01:55:58;3.03;;;2.73;;
2488;SDS011;1255;48.716;9.124;2022-08-14T01:58:27;2.53;;;2.33;;
2488;SDS011;1255;48.716;9.124;2022-08-14T02:00:54;3.17;;;2.87;;
2488;SDS011;1255;48.716;9.124;2022-08-14T02:03:23;3.13;;;2.53;;
2488;SDS011;1255;48.716;9.124;2022-08-14T02:05:50;2.60;;;2.40;;
2488;SDS011;1255;48.716;9.124;2022-08-14T02:08:22;2.90;;;2.67;;
2488;SDS011;1255;48.716;9.124;2022-08-14T02:10:51;2.50;;;2.30;;
2488;SDS011;1255;48.716;9.124;2022-08-14T02:13:41;2.50;;;2.30;;
2488;SDS011;1255;48.716;9.124;2022-08-14T02:16:10;3.20;;;3.00;;
2488;SDS011;1255;48.716;9.124;2022-08-14T02:18:37;2.40;;;2.20;;
2488;SDS011;1255;48.716;9.124;2022-08-14T02:21:04;3.00;;;2.70;;
2488;SDS011;1255;48.716;9.124;2022-08-14T02:23:31;3.10;;;2.83;;
2488;SDS011;1255;48.716;9.124;2022-08-14T02:25:58;2.60;;;2.40;;
2488;SDS011;1255;48.716;9.124;2022-08-14T02:28:26;2.70;;;2.50;;
2488;SDS011;1255;48.716;9.124;2022-08-14T02:30:57;2.70;;;2.50;;
2488;SDS011;1255;48.716;9.124;2022-08-14T02:33:23;3.00;;;2.80;;
2488;SDS011;1255;48.716;9.124;2022-08-14T02:35:52;5.20;;;3.20;;
2488;SDS011;1255;48.716;9.124;2022-08-14T02:38:19;2.60;;;2.40;;
2488;SDS011;1255;48.716;9.124;2022-08-14T02:40:46;3.07;;;2.77;;
2488;SDS011;1255;48.716;9.124;2022-08-14T02:43:12;3.00;;;2.70;;
2488;SDS011;1255;48.716;9.124;2022-08-14T02:45:39;2.40;;;2.20;;
2488;SDS011;1255;48.716;9.124;2022-08-14T02:48:08;3.17;;;2.87;;
2488;SDS011;1255;48.716;9.124;2022-08-14T02:50:34;3.83;;;2.37;;
2488;SDS011;1255;48.716;9.124;2022-08-14T02:53:03;2.73;;;2.30;;
2488;SDS011;1255;48.716;9.124;2022-08-14T02:55:30;3.13;;;2.80;;
2488;SDS011;1255;48.716;9.124;2022-08-14T02:57:57;3.03;;;2.43;;
2488;SDS011;1255;48.716;9.124;2022-08-14T03:00:24;3.67;;;2.70;;
2488;SDS011;1255;48.716;9.124;2022-08-14T03:02:51;3.67;;;2.97;;
2488;SDS011;1255;48.716;9.124;2022-08-14T03:05:19;2.87;;;2.67;;
2488;SDS011;1255;48.716;9.124;2022-08-14T03:07:47;2.90;;;2.63;;
2488;SDS011;1255;48.716;9.124;2022-08-14T03:10:14;3.00;;;2.70;;
2488;SDS011;1255;48.716;9.124;2022-08-14T03:12:40;3.30;;;2.83;;
2488;SDS011;1255;48.716;9.124;2022-08-14T03:15:07;3.73;;;3.43;;
2488;SDS011;1255;48.716;9.124;2022-08-14T03:17:37;3.23;;;2.93;;
2488;SDS011;1255;48.716;9.124;2022-08-14T03:20:04;3.40;;;2.43;;
2488;SDS011;1255;48.716;9.124;2022-08-14T03:22:33;3.43;;;2.57;;
2488;SDS011;1255;48.716;9.124;2022-08-14T03:25:00;3.37;;;3.00;;
2488;SDS011;1255;48.716;9.124;2022-08-14T03:27:26;2.63;;;2.43;;
2488;SDS011;1255;48.716;9.124;2022-08-14T03:29:55;2.83;;;2.63;;
2488;SDS011;1255;48.716;9.124;2022-08-14T03:32:22;4.37;;;3.27;;
2488;SDS011;1255;48.716;9.124;2022-08-14T03:34:49;2.77;;;2.57;;
2488;SDS011;1255;48.716;9.124;2022-08-14T03:37:16;3.40;;;3.10;;
2488;SDS011;1255;48.716;9.124;2022-08-14T03:39:44;2.80;;;2.60;;
2488;SDS011;1255;48.716;9.124;2022-08-14T03:42:11;2.57;;;2.37;;
2488;SDS011;1255;48.716;9.124;2022-08-14T03:44:37;2.73;;;2.53;;
2488;SDS011;1255;48.716;9.124;2022-08-14T03:47:05;2.80;;;2.60;;
2488;SDS011;1255;48.716;9.124;2022-08-14T03:49:32;2.57;;;2.37;;
2488;SDS011;1255;48.716;9.124;2022-08-14T03:51:59;4.37;;;2.70;;
2488;SDS011;1255;48.716;9.124;2022-08-14T03:54:28;3.53;;;2.90;;
2488;SDS011;1255;48.716;9.124;2022-08-14T03:57:01;3.23;;;2.93;;
2488;SDS011;1255;48.716;9.124;2022-08-14T03:59:28;3.63;;;3.00;;
2488;SDS011;1255;48.716;9.124;2022-08-14T04:01:55;3.10;;;2.83;;
2488;SDS011;1255;48.716;9.124;2022-08-14T04:04:22;3.10;;;2.80;;
2488;SDS011;1255;48.716;9.124;2022-08-14T04:06:49;2.97;;;2.70;;
2488;SDS011;1255;48.716;9.124;2022-08-14T04:09:15;2.60;;;2.40;;
2488;SDS011;1255;48.716;9.124;2022-08-14T04:11:43;2.83;;;2.63;;
2488;SDS011;1255;48.716;9.124;2022-08-14T04:14:11;2.80;;;2.60;;
2488;SDS011;1255;48.716;9.124;2022-08-14T04:16:38;2.97;;;2.73;;
2488;SDS011;1255;48.716;9.124;2022-08-14T04:19:10;3.30;;;3.00;;
2488;SDS011;1255;48.716;9.124;2022-08-14T04:21:39;3.17;;;2.87;;
2488;SDS011;1255;48.716;9.124;2022-08-14T04:24:06;2.83;;;2.63;;
2488;SDS011;1255;48.716;9.124;2022-08-14T04:26:33;3.70;;;3.40;;
2488;SDS011;1255;48.716;9.124;2022-08-14T04:29:00;2.83;;;2.50;;
2488;SDS011;1255;48.716;9.124;2022-08-14T04:31:28;3.30;;;3.00;;
2488;SDS011;1255;48.716;9.124;2022-08-14T04:33:55;3.47;;;3.17;;
2488;SDS011;1255;48.716;9.124;2022-08-14T04:36:22;3.10;;;2.80;;
2488;SDS011;1255;48.716;9.124;2022-08-14T04:38:49;2.80;;;2.60;;
2488;SDS011;1255;48.716;9.124;2022-08-14T04:41:33;3.40;;;3.10;;
2488;SDS011;1255;48.716;9.124;2022-08-14T04:44:17;2.80;;;2.60;;
2488;SDS011;1255;48.716;9.124;2022-08-14T04:46:45;4.07;;;3.23;;
2488;SDS011;1255;48.716;9.124;2022-08-14T04:49:26;3.23;;;2.90;;
2488;SDS011;1255;48.716;9.124;2022-08-14T04:51:53;2.80;;;2.57;;
2488;SDS011;1255;48.716;9.124;2022-08-14T04:54:19;3.60;;;3.30;;
2488;SDS011;1255;48.716;9.124;2022-08-14T04:56:46;2.70;;;2.50;;
2488;SDS011;1255;48.716;9.124;2022-08-14T04:59:13;2.97;;;2.67;;
2488;SDS011;1255;48.716;9.124;2022-08-14T05:01:40;3.00;;;2.80;;
2488;SDS011;1255;48.716;9.124;2022-08-14T05:04:10;4.70;;;2.80;;
2488;SDS011;1255;48.716;9.124;2022-08-14T05:06:37;3.00;;;2.70;;
2488;SDS011;1255;48.716;9.124;2022-08-14T05:09:04;2.87;;;2.67;;
2488;SDS011;1255;48.716;9.124;2022-08-14T05:11:31;3.13;;;2.83;;
2488;SDS011;1255;48.716;9.124;2022-08-14T05:14:00;3.90;;;2.63;;
2488;SDS011;1255;48.716;9.124;2022-08-14T05:16:26;3.20;;;2.90;;
2488;SDS011;1255;48.716;9.124;2022-08-14T05:18:55;3.53;;;2.50;;
2488;SDS011;1255;48.716;9.124;2022-08-14T05:21:23;3.20;;;2.80;;
2488;SDS011;1255;48.716;9.124;2022-08-14T05:23:52;4.20;;;3.77;;
2488;SDS011;1255;48.716;9.124;2022-08-14T05:26:19;3.40;;;3.10;;
2488;SDS011;1255;48.716;9.124;2022-08-14T05:28:46;4.37;;;3.67;;
2488;SDS011;1255;48.716;9.124;2022-08-14T05:31:14;2.90;;;2.70;;
2488;SDS011;1255;48.716;9.124;2022-08-14T05:33:42;3.27;;;3.07;;
2488;SDS011;1255;48.716;9.124;2022-08-14T05:36:12;3.37;;;3.10;;
2488;SDS011;1255;48.716;9.124;2022-08-14T05:38:41;3.20;;;2.73;;
2488;SDS011;1255;48.716;9.124;2022-08-14T05:41:09;3.10;;;2.90;;
2488;SDS011;1255;48.716;9.124;2022-08-14T05:43:37;3.97;;;2.70;;
2488;SDS011;1255;48.716;9.124;2022-08-14T05:46:05;3.20;;;2.90;;
2488;SDS011;1255;48.716;9.124;2022-08-14T05:48:32;3.17;;;2.90;;
2488;SDS011;1255;48.716;9.124;2022-08-14T05:50:59;2.67;;;2.47;;
2488;SDS011;1255;48.716;9.124;2022-08-14T05:53:26;3.67;;;2.97;;
2488;SDS011;1255;48.716;9.124;2022-08-14T05:55:55;2.87;;;2.67;;
2488;SDS011;1255;48.716;9.124;2022-08-14T05:58:23;3.75;;;2.88;;
2488;SDS011;1255;48.716;9.124;2022-08-14T06:00:51;3.87;;;3.47;;
2488;SDS011;1255;48.716;9.124;2022-08-14T06:03:19;2.93;;;2.73;;
2488;SDS011;1255;48.716;9.124;2022-08-14T06:05:48;3.77;;;3.47;;
2488;SDS011;1255;48.716;9.124;2022-08-14T06:08:17;2.80;;;2.60;;
2488;SDS011;1255;48.716;9.124;2022-08-14T06:10:46;3.50;;;2.87;;
2488;SDS011;1255;48.716;9.124;2022-08-14T06:13:15;3.00;;;2.80;;
2488;SDS011;1255;48.716;9.124;2022-08-14T06:15:43;2.90;;;2.47;;
2488;SDS011;1255;48.716;9.124;2022-08-14T06:18:09;2.90;;;2.60;;
2488;SDS011;1255;48.716;9.124;2022-08-14T06:20:36;7.10;;;3.53;;
2488;SDS011;1255;48.716;9.124;2022-08-14T06:23:03;3.10;;;2.80;;
2488;SDS011;1255;48.716;9.124;2022-08-14T06:25:30;3.03;;;2.80;;
2488;SDS011;1255;48.716;9.124;2022-08-14T06:27:57;2.80;;;2.60;;
2488;SDS011;1255;48.716;9.124;2022-08-14T06:30:26;3.40;;;2.90;;
2488;SDS011;1255;48.716;9.124;2022-08-14T06:32:55;3.53;;;3.07;;
2488;SDS011;1255;48.716;9.124;2022-08-14T06:35:22;2.77;;;2.57;;
2488;SDS011;1255;48.716;9.124;2022-08-14T06:37:49;3.00;;;2.67;;
2488;SDS011;1255;48.716;9.124;2022-08-14T06:40:19;2.90;;;2.70;;
2488;SDS011;1255;48.716;9.124;2022-08-14T06:42:47;3.50;;;3.20;;
2488;SDS011;1255;48.716;9.124;2022-08-14T06:45:14;5.77;;;2.93;;
2488;SDS011;1255;48.716;9.124;2022-08-14T06:47:44;2.80;;;2.60;;
2488;SDS011;1255;48.716;9.124;2022-08-14T06:50:14;2.73;;;2.53;;
2488;SDS011;1255;48.716;9.124;2022-08-14T06:52:42;3.23;;;2.80;;
2488;SDS011;1255;48.716;9.124;2022-08-14T06:55:10;3.03;;;2.83;;
2488;SDS011;1255;48.716;9.124;2022-08-14T06:57:38;3.83;;;2.83;;
2488;SDS011;1255;48.716;9.124;2022-08-14T07:00:07;2.70;;;2.50;;
2488;SDS011;1255;48.716;9.124;2022-08-14T07:02:35;2.90;;;2.63;;
2488;SDS011;1255;48.716;9.124;2022-08-14T07:05:21;2.70;;;2.50;;
2488;SDS011;1255;48.716;9.124;2022-08-14T07:08:05;2.87;;;2.67;;
2488;SDS011;1255;48.716;9.124;2022-08-14T07:10:37;2.73;;;2.30;;
2488;SDS011;1255;48.716;9.124;2022-08-14T07:13:03;2.83;;;2.63;;
2488;SDS011;1255;48.716;9.124;2022-08-14T07:15:30;2.57;;;2.27;;
2488;SDS011;1255;48.716;9.124;2022-08-14T07:17:58;2.73;;;2.53;;
2488;SDS011;1255;48.716;9.124;2022-08-14T07:20:27;2.60;;;2.37;;
2488;SDS011;1255;48.716;9.124;2022-08-14T07:22:54;2.40;;;2.20;;
2488;SDS011;1255;48.716;9.124;2022-08-14T07:25:22;3.07;;;2.70;;
2488;SDS011;1255;48.716;9.124;2022-08-14T07:27:49;3.17;;;2.67;;
2488;SDS011;1255;48.716;9.124;2022-08-14T07:30:16;2.27;;;2.00;;
2488;SDS011;1255;48.716;9.124;2022-08-14T07:32:42;3.67;;;2.63;;
2488;SDS011;1255;48.716;9.124;2022-08-14T07:35:09;3.70;;;2.60;;
2488;SDS011;1255;48.716;9.124;2022-08-14T07:37:37;3.00;;;2.80;;
2488;SDS011;1255;48.716;9.124;2022-08-14T07:40:04;2.67;;;2.47;;
2488;SDS011;1255;48.716;9.124;2022-08-14T07:42:32;2.90;;;2.60;;
2488;SDS011;1255;48.716;9.124;2022-08-14T07:44:59;2.53;;;2.23;;
2488;SDS011;1255;48.716;9.124;2022-08-14T07:47:26;2.57;;;2.37;;
2488;SDS011;1255;48.716;9.124;2022-08-14T07:49:56;3.20;;;2.73;;
2488;SDS011;1255;48.716;9.124;2022-08-14T07:52:25;3.10;;;2.00;;
2488;SDS011;1255;48.716;9.124;2022-08-14T07:54:54;2.20;;;2.00;;
2488;SDS011;1255;48.716;9.124;2022-08-14T07:57:21;2.90;;;2.60;;
2488;SDS011;1255;48.716;9.124;2022-08-14T07:59:48;2.20;;;2.00;;
2488;SDS011;1255;48.716;9.124;2022-08-14T08:02:15;2.50;;;2.30;;
2488;SDS011;1255;48.716;9.124;2022-08-14T08:04:43;2.60;;;2.40;;
2488;SDS011;1255;48.716;9.124;2022-08-14T08:07:11;2.30;;;2.10;;
2488;SDS011;1255;48.716;9.124;2022-08-14T08:09:41;2.30;;;2.13;;
2488;SDS011;1255;48.716;9.124;2022-08-14T08:12:10;2.37;;;2.17;;
2488;SDS011;1255;48.716;9.124;2022-08-14T08:14:39;2.23;;;2.03;;
2488;SDS011;1255;48.716;9.124;2022-08-14T08:17:07;2.33;;;2.10;;
2488;SDS011;1255;48.716;9.124;2022-08-14T08:19:35;2.20;;;2.00;;
2488;SDS011;1255;48.716;9.124;2022-08-14T08:22:03;2.30;;;2.13;;
2488;SDS011;1255;48.716;9.124;2022-08-14T08:24:30;2.10;;;1.90;;
2488;SDS011;1255;48.716;9.124;2022-08-14T08:26:57;2.53;;;2.33;;
2488;SDS011;1255;48.716;9.124;2022-08-14T08:29:25;2.10;;;2.00;;
2488;SDS011;1255;48.716;9.124;2022-08-14T08:31:51;2.50;;;2.30;;
2488;SDS011;1255;48.716;9.124;2022-08-14T08:34:18;2.80;;;2.60;;
2488;SDS011;1255;48.716;9.124;2022-08-14T08:36:46;2.27;;;2.07;;
2488;SDS011;1255;48.716;9.124;2022-08-14T08:39:12;2.40;;;2.20;;
2488;SDS011;1255;48.716;9.124;2022-08-14T08:41:40;2.50;;;2.30;;
2488;SDS011;1255;48.716;9.124;2022-08-14T08:44:08;1.93;;;1.83;;
2488;SDS011;1255;48.716;9.124;2022-08-14T08:46:36;2.17;;;1.97;;
2488;SDS011;1255;48.716;9.124;2022-08-14T08:49:04;2.60;;;2.40;;
2488;SDS011;1255;48.716;9.124;2022-08-14T08:51:32;2.50;;;2.30;;
2488;SDS011;1255;48.716;9.124;2022-08-14T08:54:03;2.40;;;2.20;;
2488;SDS011;1255;48.716;9.124;2022-08-14T08:56:33;2.23;;;2.10;;
2488;SDS011;1255;48.716;9.124;2022-08-14T08:59:14;2.30;;;2.10;;
2488;SDS011;1255;48.716;9.124;2022-08-14T09:01:47;2.80;;;2.60;;
2488;SDS011;1255;48.716;9.124;2022-08-14T09:04:15;2.47;;;2.27;;
2488;SDS011;1255;48.716;9.124;2022-08-14T09:06:42;2.83;;;2.27;;
2488;SDS011;1255;48.716;9.124;2022-08-14T09:09:16;2.80;;;2.60;;
2488;SDS011;1255;48.716;9.124;2022-08-14T09:11:44;2.00;;;1.87;;
2488;SDS011;1255;48.716;9.124;2022-08-14T09:14:11;2.43;;;2.23;;
2488;SDS011;1255;48.716;9.124;2022-08-14T09:16:39;2.53;;;2.33;;
2488;SDS011;1255;48.716;9.124;2022-08-14T09:19:07;3.63;;;3.30;;
2488;SDS011;1255;48.716;9.124;2022-08-14T09:21:35;2.53;;;2.33;;
2488;SDS011;1255;48.716;9.124;2022-08-14T09:24:04;2.60;;;2.40;;
2488;SDS011;1255;48.716;9.124;2022-08-14T09:26:32;2.53;;;2.17;;
2488;SDS011;1255;48.716;9.124;2022-08-14T09:28:59;2.33;;;2.13;;
2488;SDS011;1255;48.716;9.124;2022-08-14T09:31:26;2.27;;;2.07;;
2488;SDS011;1255;48.716;9.124;2022-08-14T09:33:57;2.30;;;2.10;;
2488;SDS011;1255;48.716;9.124;2022-08-14T09:39:32;2.70;;;2.50;;
2488;SDS011;1255;48.716;9.124;2022-08-14T09:42:19;2.60;;;2.40;;
2488;SDS011;1255;48.716;9.124;2022-08-14T09:44:58;2.20;;;2.00;;
2488;SDS011;1255;48.716;9.124;2022-08-14T09:47:38;2.70;;;2.50;;
2488;SDS011;1255;48.716;9.124;2022-08-14T09:50:14;3.10;;;2.80;;
2488;SDS011;1255;48.716;9.124;2022-08-14T09:52:49;2.63;;;2.43;;
2488;SDS011;1255;48.716;9.124;2022-08-14T09:55:17;2.30;;;2.10;;
2488;SDS011;1255;48.716;9.124;2022-08-14T09:57:47;3.27;;;2.87;;
2488;SDS011;1255;48.716;9.124;2022-08-14T10:00:16;2.60;;;2.40;;
2488;SDS011;1255;48.716;9.124;2022-08-14T10:02:51;2.60;;;2.40;;
2488;SDS011;1255;48.716;9.124;2022-08-14T10:05:26;2.60;;;2.40;;
2488;SDS011;1255;48.716;9.124;2022-08-14T10:07:56;2.50;;;2.30;;
2488;SDS011;1255;48.716;9.124;2022-08-14T10:10:27;2.40;;;2.23;;
2488;SDS011;1255;48.716;9.124;2022-08-14T10:12:55;2.80;;;2.60;;
2488;SDS011;1255;48.716;9.124;2022-08-14T10:15:24;2.60;;;2.30;;
2488;SDS011;1255;48.716;9.124;2022-08-14T10:18:02;2.40;;;2.20;;
2488;SDS011;1255;48.716;9.124;2022-08-14T10:20:33;4.57;;;2.80;;
2488;SDS011;1255;48.716;9.124;2022-08-14T10:23:10;3.10;;;2.60;;
2488;SDS011;1255;48.716;9.124;2022-08-14T10:25:38;3.43;;;2.90;;
2488;SDS011;1255;48.716;9.124;2022-08-14T10:28:07;2.83;;;2.63;;
2488;SDS011;1255;48.716;9.124;2022-08-14T10:30:39;2.70;;;2.50;;
2488;SDS011;1255;48.716;9.124;2022-08-14T10:33:06;2.83;;;2.63;;
2488;SDS011;1255;48.716;9.124;2022-08-14T10:35:40;3.37;;;2.70;;
2488;SDS011;1255;48.716;9.124;2022-08-14T10:38:09;2.80;;;2.60;;
2488;SDS011;1255;48.716;9.124;2022-08-14T10:40:36;2.97;;;2.77;;
2488;SDS011;1255;48.716;9.124;2022-08-14T10:43:14;2.73;;;2.53;;
2488;SDS011;1255;48.716;9.124;2022-08-14T10:45:51;4.17;;;3.77;;
2488;SDS011;1255;48.716;9.124;2022-08-14T10:48:22;3.77;;;3.43;;
2488;SDS011;1255;48.716;9.124;2022-08-14T10:50:49;4.30;;;3.90;;
2488;SDS011;1255;48.716;9.124;2022-08-14T10:53:28;5.87;;;4.80;;
2488;SDS011;1255;48.716;9.124;2022-08-14T10:55:57;4.10;;;3.80;;
2488;SDS011;1255;48.716;9.124;2022-08-14T10:58:25;3.63;;;3.30;;
2488;SDS011;1255;48.716;9.124;2022-08-14T11:00:54;4.10;;;3.77;;
2488;SDS011;1255;48.716;9.124;2022-08-14T11:03:22;4.30;;;3.83;;
2488;SDS011;1255;48.716;9.124;2022-08-14T11:05:50;3.03;;;2.70;;
2488;SDS011;1255;48.716;9.124;2022-08-14T11:08:17;3.70;;;3.40;;
2488;SDS011;1255;48.716;9.124;2022-08-14T11:10:57;4.40;;;4.00;;
2488;SDS011;1255;48.716;9.124;2022-08-14T11:13:28;3.50;;;2.87;;
2488;SDS011;1255;48.716;9.124;2022-08-14T11:15:56;2.63;;;2.43;;
2488;SDS011;1255;48.716;9.124;2022-08-14T11:18:25;2.97;;;2.73;;
2488;SDS011;1255;48.716;9.124;2022-08-14T11:20:54;2.80;;;2.60;;
2488;SDS011;1255;48.716;9.124;2022-08-14T11:23:24;3.33;;;3.03;;
2488;SDS011;1255;48.716;9.124;2022-08-14T11:25:55;3.07;;;2.87;;
2488;SDS011;1255;48.716;9.124;2022-08-14T11:28:23;2.87;;;2.67;;
2488;SDS011;1255;48.716;9.124;2022-08-14T11:30:51;2.60;;;2.40;;
2488;SDS011;1255;48.716;9.124;2022-08-14T11:33:20;2.97;;;2.77;;
2488;SDS011;1255;48.716;9.124;2022-08-14T11:35:48;2.70;;;2.50;;
2488;SDS011;1255;48.716;9.124;2022-08-14T11:38:16;2.90;;;2.70;;
2488;SDS011;1255;48.716;9.124;2022-08-14T11:40:45;2.83;;;2.63;;
2488;SDS011;1255;48.716;9.124;2022-08-14T11:43:14;2.63;;;2.43;;
2488;SDS011;1255;48.716;9.124;2022-08-14T11:45:43;2.70;;;2.50;;
2488;SDS011;1255;48.716;9.124;2022-08-14T11:48:14;2.67;;;2.47;;
2488;SDS011;1255;48.716;9.124;2022-08-14T11:50:43;2.80;;;2.43;;
2488;SDS011;1255;48.716;9.124;2022-08-14T11:53:20;2.53;;;2.33;;
2488;SDS011;1255;48.716;9.124;2022-08-14T11:55:53;3.77;;;3.47;;
2488;SDS011;1255;48.716;9.124;2022-08-14T11:58:25;2.93;;;2.73;;
2488;SDS011;1255;48.716;9.124;2022-08-14T12:00:55;2.40;;;2.23;;
2488;SDS011;1255;48.716;9.124;2022-08-14T12:03:35;2.93;;;2.50;;
2488;SDS011;1255;48.716;9.124;2022-08-14T12:06:04;2.97;;;2.77;;
2488;SDS011;1255;48.716;9.124;2022-08-14T12:08:32;2.67;;;2.47;;
2488;SDS011;1255;48.716;9.124;2022-08-14T12:11:00;2.50;;;2.30;;
2488;SDS011;1255;48.716;9.124;2022-08-14T12:13:29;2.63;;;2.43;;
2488;SDS011;1255;48.716;9.124;2022-08-14T12:15:58;2.73;;;2.53;;
2488;SDS011;1255;48.716;9.124;2022-08-14T12:18:29;2.60;;;2.40;;
2488;SDS011;1255;48.716;9.124;2022-08-14T12:21:09;2.50;;;2.30;;
2488;SDS011;1255;48.716;9.124;2022-08-14T12:23:37;2.60;;;2.40;;
2488;SDS011;1255;48.716;9.124;2022-08-14T12:26:04;3.63;;;2.57;;
2488;SDS011;1255;48.716;9.124;2022-08-14T12:28:34;2.53;;;2.20;;
2488;SDS011;1255;48.716;9.124;2022-08-14T12:31:10;2.30;;;2.10;;
2488;SDS011;1255;48.716;9.124;2022-08-14T12:33:41;2.30;;;2.20;;
2488;SDS011;1255;48.716;9.124;2022-08-14T12:36:08;2.40;;;2.20;;
2488;SDS011;1255;48.716;9.124;2022-08-14T12:38:46;2.47;;;2.27;;
2488;SDS011;1255;48.716;9.124;2022-08-14T12:41:15;2.07;;;1.90;;
2488;SDS011;1255;48.716;9.124;2022-08-14T12:43:46;2.40;;;2.20;;
2488;SDS011;1255;48.716;9.124;2022-08-14T12:46:21;2.20;;;2.00;;
2488;SDS011;1255;48.716;9.124;2022-08-14T12:48:53;2.50;;;2.30;;
2488;SDS011;1255;48.716;9.124;2022-08-14T12:51:21;2.60;;;2.40;;
2488;SDS011;1255;48.716;9.124;2022-08-14T12:53:50;1.70;;;1.60;;
2488;SDS011;1255;48.716;9.124;2022-08-14T12:56:18;2.60;;;2.40;;
2488;SDS011;1255;48.716;9.124;2022-08-14T12:58:48;1.80;;;1.70;;
2488;SDS011;1255;48.716;9.124;2022-08-14T13:01:19;2.20;;;2.00;;
2488;SDS011;1255;48.716;9.124;2022-08-14T13:03:47;1.93;;;1.83;;
2488;SDS011;1255;48.716;9.124;2022-08-14T13:06:13;1.70;;;1.60;;
2488;SDS011;1255;48.716;9.124;2022-08-14T13:08:41;1.80;;;1.70;;
2488;SDS011;1255;48.716;9.124;2022-08-14T13:11:10;1.70;;;1.60;;
2488;SDS011;1255;48.716;9.124;2022-08-14T13:13:39;1.60;;;1.50;;
2488;SDS011;1255;48.716;9.124;2022-08-14T13:16:10;1.90;;;1.80;;
2488;SDS011;1255;48.716;9.124;2022-08-14T13:18:40;3.33;;;1.97;;
2488;SDS011;1255;48.716;9.124;2022-08-14T13:21:09;2.40;;;2.20;;
2488;SDS011;1255;48.716;9.124;2022-08-14T13:23:36;2.17;;;1.97;;
2488;SDS011;1255;48.716;9.124;2022-08-14T13:26:08;2.23;;;2.03;;
2488;SDS011;1255;48.716;9.124;2022-08-14T13:28:37;2.40;;;2.20;;
2488;SDS011;1255;48.716;9.124;2022-08-14T13:31:07;1.63;;;1.53;;
2488;SDS011;1255;48.716;9.124;2022-08-14T13:33:35;2.10;;;1.90;;
2488;SDS011;1255;48.716;9.124;2022-08-14T13:36:03;2.03;;;1.83;;
2488;SDS011;1255;48.716;9.124;2022-08-14T13:38:30;2.30;;;1.83;;
2488;SDS011;1255;48.716;9.124;2022-08-14T13:41:00;1.80;;;1.70;;
2488;SDS011;1255;48.716;9.124;2022-08-14T13:43:30;2.37;;;2.17;;
2488;SDS011;1255;48.716;9.124;2022-08-14T13:45:57;1.80;;;1.67;;
2488;SDS011;1255;48.716;9.124;2022-08-14T13:48:24;1.83;;;1.73;;
2488;SDS011;1255;48.716;9.124;2022-08-14T13:50:54;2.13;;;1.80;;
2488;SDS011;1255;48.716;9.124;2022-08-14T13:53:23;2.10;;;1.90;;
2488;SDS011;1255;48.716;9.124;2022-08-14T13:55:53;2.10;;;1.97;;
2488;SDS011;1255;48.716;9.124;2022-08-14T13:58:21;2.33;;;1.90;;
2488;SDS011;1255;48.716;9.124;2022-08-14T14:00:50;2.30;;;2.10;;
2488;SDS011;1255;48.716;9.124;2022-08-14T14:03:18;1.93;;;1.83;;
2488;SDS011;1255;48.716;9.124;2022-08-14T14:05:47;2.10;;;2.00;;
2488;SDS011;1255;48.716;9.124;2022-08-14T14:08:17;2.43;;;2.23;;
2488;SDS011;1255;48.716;9.124;2022-08-14T14:10:46;2.10;;;1.90;;
2488;SDS011;1255;48.716;9.124;2022-08-14T14:13:14;2.03;;;1.93;;
2488;SDS011;1255;48.716;9.124;2022-08-14T14:15:42;1.83;;;1.73;;
2488;SDS011;1255;48.716;9.124;2022-08-14T14:18:09;1.60;;;1.50;;
2488;SDS011;1255;48.716;9.124;2022-08-14T14:20:37;1.90;;;1.80;;
2488;SDS011;1255;48.716;9.124;2022-08-14T14:23:08;2.10;;;2.00;;
2488;SDS011;1255;48.716;9.124;2022-08-14T14:25:43;2.13;;;2.03;;
2488;SDS011;1255;48.716;9.124;2022-08-14T14:28:12;2.20;;;2.00;;
2488;SDS011;1255;48.716;9.124;2022-08-14T14:30:42;1.80;;;1.70;;
2488;SDS011;1255;48.716;9.124;2022-08-14T14:33:11;2.27;;;2.07;;
2488;SDS011;1255;48.716;9.124;2022-08-14T14:35:40;1.80;;;1.70;;
2488;SDS011;1255;48.716;9.124;2022-08-14T14:38:12;2.00;;;1.90;;
2488;SDS011;1255;48.716;9.124;2022-08-14T14:40:43;1.97;;;1.87;;
2488;SDS011;1255;48.716;9.124;2022-08-14T14:43:11;2.00;;;1.90;;
2488;SDS011;1255;48.716;9.124;2022-08-14T14:45:39;2.20;;;2.00;;
2488;SDS011;1255;48.716;9.124;2022-08-14T14:48:10;1.83;;;1.73;;
2488;SDS011;1255;48.716;9.124;2022-08-14T14:50:37;2.30;;;2.10;;
2488;SDS011;1255;48.716;9.124;2022-08-14T14:53:04;2.30;;;2.10;;
2488;SDS011;1255;48.716;9.124;2022-08-14T14:55:32;2.00;;;1.90;;
2488;SDS011;1255;48.716;9.124;2022-08-14T14:58:00;2.40;;;1.97;;
2488;SDS011;1255;48.716;9.124;2022-08-14T15:00:27;2.20;;;2.10;;
2488;SDS011;1255;48.716;9.124;2022-08-14T15:02:54;2.50;;;2.30;;
2488;SDS011;1255;48.716;9.124;2022-08-14T15:05:22;1.90;;;1.80;;
2488;SDS011;1255;48.716;9.124;2022-08-14T15:07:50;2.30;;;2.20;;
2488;SDS011;1255;48.716;9.124;2022-08-14T15:10:18;2.30;;;2.10;;
2488;SDS011;1255;48.716;9.124;2022-08-14T15:12:46;2.13;;;2.03;;
2488;SDS011;1255;48.716;9.124;2022-08-14T15:15:14;2.20;;;2.00;;
2488;SDS011;1255;48.716;9.124;2022-08-14T15:17:41;2.20;;;2.10;;
2488;SDS011;1255;48.716;9.124;2022-08-14T15:20:09;3.20;;;2.00;;
2488;SDS011;1255;48.716;9.124;2022-08-14T15:22:37;2.20;;;2.00;;
2488;SDS011;1255;48.716;9.124;2022-08-14T15:25:05;2.70;;;2.50;;
2488;SDS011;1255;48.716;9.124;2022-08-14T15:27:33;2.27;;;2.07;;
2488;SDS011;1255;48.716;9.124;2022-08-14T15:30:01;2.33;;;1.60;;